createdAt,value
2019-03-09T00:02:10.795Z,4.10
2019-03-09T00:04:41.263Z,4.00
2019-03-09T00:07:11.762Z,3.90
2019-03-09T00:09:42.507Z,3.80
2019-03-09T00:12:16.622Z,3.70
2019-03-09T00:14:48.412Z,3.70
2019-03-09T00:17:18.962Z,3.70
2019-03-09T00:19:49.758Z,3.70
2019-03-09T00:22:20.332Z,3.80
2019-03-09T00:25:06.926Z,3.70
2019-03-09T00:27:59.105Z,3.80
2019-03-09T00:30:43.699Z,3.80
2019-03-09T00:33:14.163Z,3.70
2019-03-09T00:35:44.641Z,3.80
2019-03-09T00:38:15.083Z,3.80
2019-03-09T00:40:45.759Z,3.90
2019-03-09T00:43:16.620Z,3.90
2019-03-09T00:45:47.093Z,3.90
2019-03-09T00:48:18.053Z,3.90
2019-03-09T00:50:49.732Z,3.90
2019-03-09T00:53:20.398Z,3.90
2019-03-09T00:55:50.850Z,3.90
2019-03-09T00:58:21.308Z,3.90
2019-03-09T01:00:51.931Z,3.90
2019-03-09T01:03:22.494Z,3.80
2019-03-09T01:05:54.934Z,3.90
2019-03-09T01:08:25.430Z,3.90
2019-03-09T01:10:56.018Z,3.90
2019-03-09T01:13:26.524Z,3.90
2019-03-09T01:15:57.220Z,3.90
2019-03-09T01:18:28.070Z,3.90
2019-03-09T01:20:58.546Z,3.90
2019-03-09T01:23:29.653Z,4.00
2019-03-09T01:26:00.200Z,4.00
2019-03-09T01:28:30.680Z,4.10
2019-03-09T01:31:01.131Z,4.30
2019-03-09T01:33:31.577Z,4.30
2019-03-09T01:36:02.188Z,4.30
2019-03-09T01:38:32.712Z,4.30
2019-03-09T01:41:03.282Z,4.40
2019-03-09T01:43:33.813Z,4.40
2019-03-09T01:46:04.473Z,4.40
2019-03-09T01:48:34.978Z,4.50
2019-03-09T01:51:05.614Z,4.40
2019-03-09T01:53:36.966Z,4.50
2019-03-09T01:56:07.669Z,4.50
2019-03-09T01:58:38.244Z,4.50
2019-03-09T02:01:08.717Z,4.60
2019-03-09T02:03:39.240Z,4.60
2019-03-09T02:06:09.822Z,4.60
2019-03-09T02:08:40.307Z,4.60
2019-03-09T02:11:10.777Z,4.70
2019-03-09T02:13:41.328Z,4.60
2019-03-09T02:16:11.859Z,4.70
2019-03-09T02:18:42.359Z,4.70
2019-03-09T02:21:12.850Z,4.70
2019-03-09T02:23:43.326Z,4.70
2019-03-09T02:26:15.542Z,4.70
2019-03-09T02:28:48.091Z,4.70
2019-03-09T02:31:18.523Z,4.80
2019-03-09T02:33:49.198Z,4.70
2019-03-09T02:36:19.818Z,4.80
2019-03-09T02:39:06.057Z,4.80
2019-03-09T02:41:38.109Z,4.80
2019-03-09T02:44:08.611Z,4.80
2019-03-09T02:46:39.148Z,4.80
2019-03-09T02:49:09.620Z,4.90
2019-03-09T02:51:40.047Z,4.90
2019-03-09T02:54:10.787Z,4.80
2019-03-09T02:56:41.316Z,4.80
2019-03-09T02:59:11.823Z,4.80
2019-03-09T03:01:57.406Z,4.80
2019-03-09T03:04:27.874Z,4.90
2019-03-09T03:06:58.571Z,4.70
2019-03-09T03:09:29.035Z,4.70
2019-03-09T03:11:59.600Z,4.50
2019-03-09T03:14:30.117Z,4.40
2019-03-09T03:17:00.627Z,4.30
2019-03-09T03:19:31.143Z,4.40
2019-03-09T03:22:01.585Z,4.50
2019-03-09T03:24:32.121Z,4.70
2019-03-09T03:27:02.549Z,4.90
2019-03-09T03:29:33.134Z,5.00
2019-03-09T03:32:03.622Z,5.10
2019-03-09T03:34:34.118Z,5.10
2019-03-09T03:37:04.656Z,5.20
2019-03-09T03:39:35.083Z,5.30
2019-03-09T03:42:05.818Z,5.30
2019-03-09T03:44:44.772Z,5.20
2019-03-09T03:47:17.368Z,4.90
2019-03-09T03:49:47.922Z,4.60
2019-03-09T03:52:18.452Z,4.40
2019-03-09T03:54:49.036Z,4.20
2019-03-09T03:57:19.658Z,4.10
2019-03-09T03:59:50.175Z,4.10
2019-03-09T04:02:20.650Z,4.00
2019-03-09T04:04:51.065Z,4.00
2019-03-09T04:07:21.648Z,4.00
2019-03-09T04:09:52.135Z,4.00
2019-03-09T04:12:22.989Z,4.00
2019-03-09T04:14:53.557Z,4.10
2019-03-09T04:17:24.030Z,4.10
2019-03-09T04:19:54.567Z,4.10
2019-03-09T04:22:24.951Z,4.10
2019-03-09T04:24:55.525Z,4.10
2019-03-09T04:27:26.023Z,4.10
2019-03-09T04:29:56.607Z,4.20
2019-03-09T04:32:27.134Z,4.20
2019-03-09T04:34:57.660Z,4.10
2019-03-09T04:37:28.509Z,4.10
2019-03-09T04:39:59.060Z,4.10
2019-03-09T04:42:29.555Z,4.10
2019-03-09T04:45:00.301Z,4.10
2019-03-09T04:47:31.049Z,4.00
2019-03-09T04:50:02.037Z,4.00
2019-03-09T04:52:32.870Z,4.00
2019-03-09T04:55:03.678Z,3.90
2019-03-09T04:57:34.166Z,3.90
2019-03-09T05:00:06.203Z,3.80
2019-03-09T05:02:37.778Z,3.80
2019-03-09T05:05:09.363Z,3.80
2019-03-09T05:07:48.973Z,3.80
2019-03-09T05:10:32.735Z,3.70
2019-03-09T05:13:07.003Z,3.80
2019-03-09T05:15:37.493Z,3.80
2019-03-09T05:18:07.930Z,3.80
2019-03-09T05:20:38.426Z,3.80
2019-03-09T05:23:08.915Z,3.90
2019-03-09T05:25:39.493Z,3.90
2019-03-09T05:28:09.992Z,3.90
2019-03-09T05:30:42.074Z,3.90
2019-03-09T05:33:12.559Z,4.00
2019-03-09T05:35:43.126Z,4.00
2019-03-09T05:38:13.552Z,4.00
2019-03-09T05:40:44.043Z,4.10
2019-03-09T05:43:14.601Z,4.10
2019-03-09T05:45:45.091Z,4.10
2019-03-09T05:48:15.599Z,4.20
2019-03-09T05:50:46.071Z,4.20
2019-03-09T05:53:21.642Z,4.20
2019-03-09T05:55:53.041Z,4.20
2019-03-09T05:58:23.619Z,4.20
2019-03-09T06:00:54.139Z,4.30
2019-03-09T06:03:24.658Z,4.30
2019-03-09T06:05:58.473Z,4.40
2019-03-09T06:08:34.982Z,4.50
2019-03-09T06:11:05.663Z,4.60
2019-03-09T06:13:36.299Z,4.70
2019-03-09T06:16:07.411Z,4.70
2019-03-09T06:18:37.948Z,4.80
2019-03-09T06:21:08.571Z,4.80
2019-03-09T06:23:39.055Z,4.80
2019-03-09T06:26:09.557Z,4.90
2019-03-09T06:28:40.007Z,4.90
2019-03-09T06:31:10.492Z,5.00
2019-03-09T06:33:41.895Z,5.10
2019-03-09T06:36:49.400Z,5.10
2019-03-09T06:39:25.365Z,5.20
2019-03-09T06:42:05.289Z,5.30
2019-03-09T06:44:35.966Z,5.30
2019-03-09T06:47:06.555Z,5.40
2019-03-09T06:49:38.464Z,5.40
2019-03-09T06:52:09.127Z,5.50
2019-03-09T06:54:39.655Z,5.60
2019-03-09T06:57:14.064Z,5.80
2019-03-09T06:59:43.711Z,6.00
2019-03-09T07:02:14.337Z,6.20
2019-03-09T07:04:44.906Z,6.50
2019-03-09T07:07:15.469Z,6.70
2019-03-09T07:09:46.068Z,6.90
2019-03-09T07:12:16.597Z,7.10
2019-03-09T07:15:22.825Z,7.20
2019-03-09T07:17:58.507Z,7.30
2019-03-09T07:20:29.141Z,7.60
2019-03-09T07:22:59.711Z,7.70
2019-03-09T07:25:30.162Z,7.80
2019-03-09T07:28:06.946Z,7.90
2019-03-09T07:30:37.614Z,8.00
2019-03-09T07:33:08.122Z,7.80
2019-03-09T07:35:38.739Z,7.70
2019-03-09T07:38:09.349Z,7.80
2019-03-09T07:40:39.824Z,7.90
2019-03-09T07:43:10.392Z,8.10
2019-03-09T07:45:41.091Z,8.10
2019-03-09T07:48:11.727Z,8.10
2019-03-09T07:50:44.065Z,8.20
2019-03-09T07:53:14.663Z,8.30
2019-03-09T07:55:45.329Z,8.50
2019-03-09T07:58:16.102Z,8.60
2019-03-09T08:00:46.534Z,8.70
2019-03-09T08:03:18.250Z,8.80
2019-03-09T08:05:48.761Z,8.70
2019-03-09T08:08:21.076Z,8.70
2019-03-09T08:10:51.523Z,8.80
2019-03-09T08:13:21.965Z,8.80
2019-03-09T08:15:52.477Z,8.90
2019-03-09T08:18:23.065Z,8.90
2019-03-09T08:20:53.566Z,9.00
2019-03-09T08:23:24.203Z,9.00
2019-03-09T08:25:54.768Z,9.00
2019-03-09T08:28:25.323Z,9.00
2019-03-09T08:30:55.786Z,9.00
2019-03-09T08:33:26.280Z,9.20
2019-03-09T08:35:56.939Z,9.50
2019-03-09T08:38:27.495Z,10.00
2019-03-09T08:40:58.630Z,10.50
2019-03-09T08:43:30.416Z,10.70
2019-03-09T08:46:00.985Z,10.80
2019-03-09T08:48:34.233Z,10.50
2019-03-09T08:51:04.727Z,10.40
2019-03-09T08:53:35.357Z,10.10
2019-03-09T08:56:05.800Z,10.30
2019-03-09T08:58:36.693Z,10.60
2019-03-09T09:01:07.262Z,10.60
2019-03-09T09:03:37.803Z,10.70
2019-03-09T09:06:08.309Z,10.70
2019-03-09T09:08:38.947Z,10.60
2019-03-09T09:11:10.601Z,10.40
2019-03-09T09:13:41.129Z,10.20
2019-03-09T09:16:11.608Z,10.10
2019-03-09T09:18:42.084Z,10.20
2019-03-09T09:21:14.660Z,10.00
2019-03-09T09:23:45.335Z,9.90
2019-03-09T09:26:15.936Z,10.00
2019-03-09T09:28:46.441Z,10.00
2019-03-09T09:31:16.923Z,10.10
2019-03-09T09:33:47.624Z,10.00
2019-03-09T09:36:18.213Z,9.90
2019-03-09T09:38:49.566Z,9.80
2019-03-09T09:41:20.193Z,9.60
2019-03-09T09:43:50.742Z,9.40
2019-03-09T09:46:21.440Z,9.40
2019-03-09T09:48:52.808Z,9.20
2019-03-09T09:51:23.411Z,9.10
2019-03-09T09:53:53.870Z,9.00
2019-03-09T09:56:24.370Z,8.90
2019-03-09T09:58:54.826Z,8.90
2019-03-09T10:01:25.410Z,9.00
2019-03-09T10:03:56.217Z,9.00
2019-03-09T10:06:26.796Z,9.00
2019-03-09T10:08:58.250Z,9.00
2019-03-09T10:11:28.889Z,9.00
2019-03-09T10:13:59.378Z,9.00
2019-03-09T10:16:30.272Z,8.90
2019-03-09T10:19:00.832Z,8.70
2019-03-09T10:21:31.468Z,8.50
2019-03-09T10:24:02.328Z,8.40
2019-03-09T10:26:32.816Z,8.40
2019-03-09T10:29:03.312Z,8.30
2019-03-09T10:31:33.848Z,8.20
2019-03-09T10:34:04.420Z,8.10
2019-03-09T10:36:34.866Z,8.10
2019-03-09T10:39:06.744Z,8.00
2019-03-09T10:41:38.038Z,8.00
2019-03-09T10:44:08.487Z,7.90
2019-03-09T10:46:38.918Z,7.80
2019-03-09T10:49:09.580Z,7.90
2019-03-09T10:51:40.242Z,7.90
2019-03-09T10:54:10.831Z,8.00
2019-03-09T10:56:41.342Z,8.10
2019-03-09T10:59:11.826Z,8.10
2019-03-09T11:01:42.450Z,8.20
2019-03-09T11:04:14.060Z,8.30
2019-03-09T11:06:44.690Z,8.50
2019-03-09T11:09:15.318Z,8.50
2019-03-09T11:11:45.991Z,8.60
2019-03-09T11:14:16.486Z,8.70
2019-03-09T11:16:47.252Z,8.70
2019-03-09T11:19:17.695Z,8.80
2019-03-09T11:21:48.224Z,8.90
2019-03-09T11:24:18.789Z,9.00
2019-03-09T11:26:50.140Z,9.00
2019-03-09T11:29:20.566Z,9.10
2019-03-09T11:31:51.103Z,9.10
2019-03-09T11:34:21.776Z,9.20
2019-03-09T11:36:52.248Z,9.20
2019-03-09T11:39:22.710Z,9.20
2019-03-09T11:41:53.280Z,9.30
2019-03-09T11:44:23.676Z,9.30
2019-03-09T11:46:54.190Z,9.40
2019-03-09T11:49:24.654Z,9.50
2019-03-09T11:51:55.197Z,9.60
2019-03-09T11:54:25.638Z,9.70
2019-03-09T11:56:56.183Z,9.70
2019-03-09T11:59:26.770Z,9.80
2019-03-09T12:01:57.240Z,9.70
2019-03-09T12:04:27.718Z,9.70
2019-03-09T12:06:58.300Z,9.70
2019-03-09T12:09:30.471Z,9.70
2019-03-09T12:12:04.969Z,9.70
2019-03-09T12:14:35.466Z,9.80
2019-03-09T12:17:12.667Z,9.80
2019-03-09T12:32:17.562Z,10.20
2019-03-09T13:14:02.931Z,10.80
2019-03-09T13:16:33.476Z,10.90
2019-03-09T13:22:07.682Z,10.80
2019-03-09T13:39:01.205Z,11.70
2019-03-09T13:44:45.983Z,11.70
2019-03-09T13:47:17.929Z,11.60
2019-03-09T13:49:48.639Z,11.80
2019-03-09T13:52:19.316Z,11.80
2019-03-09T13:54:50.097Z,11.90
2019-03-09T13:57:20.820Z,11.80
2019-03-09T13:59:53.156Z,11.80
2019-03-09T14:02:23.748Z,11.80
2019-03-09T14:04:54.330Z,11.80
2019-03-09T14:07:24.872Z,11.70
2019-03-09T14:09:57.805Z,11.70
2019-03-09T14:12:28.343Z,11.70
2019-03-09T14:14:59.115Z,11.60
2019-03-09T14:17:29.730Z,11.60
2019-03-09T14:20:00.352Z,11.60
2019-03-09T14:22:31.396Z,11.60
2019-03-09T14:25:01.985Z,11.60
2019-03-09T14:27:32.528Z,11.60
2019-03-09T14:30:03.194Z,11.60
2019-03-09T14:32:35.074Z,11.50
2019-03-09T14:35:06.499Z,11.50
2019-03-09T14:37:38.677Z,11.50
2019-03-09T14:40:10.697Z,11.50
2019-03-09T14:42:41.305Z,11.60
2019-03-09T14:45:14.732Z,11.60
2019-03-09T14:47:45.296Z,11.60
2019-03-09T14:50:16.231Z,11.70
2019-03-09T14:52:49.121Z,11.60
2019-03-09T14:55:19.665Z,11.60
2019-03-09T14:57:50.338Z,11.50
2019-03-09T15:00:21.704Z,11.50
2019-03-09T15:02:52.304Z,11.50
2019-03-09T15:05:23.005Z,11.50
2019-03-09T15:07:53.761Z,11.50
2019-03-09T15:10:24.403Z,11.50
2019-03-09T15:12:55.124Z,11.40
2019-03-09T15:15:25.711Z,11.40
2019-03-09T15:17:56.344Z,11.40
2019-03-09T15:20:26.862Z,11.40
2019-03-09T15:23:02.523Z,11.40
2019-03-09T15:25:33.066Z,11.30
2019-03-09T15:28:03.706Z,11.40
2019-03-09T15:30:37.591Z,11.30
2019-03-09T15:33:08.156Z,11.30
2019-03-09T15:35:38.596Z,11.30
2019-03-09T15:38:09.207Z,11.30
2019-03-09T15:40:39.857Z,11.20
2019-03-09T15:43:10.336Z,11.20
2019-03-09T15:45:40.792Z,11.20
2019-03-09T15:48:11.380Z,11.20
2019-03-09T15:50:41.885Z,11.20
2019-03-09T15:53:14.711Z,11.20
2019-03-09T15:55:45.190Z,11.20
2019-03-09T15:58:15.734Z,11.10
2019-03-09T16:00:46.379Z,11.10
2019-03-09T16:03:16.929Z,11.10
2019-03-09T16:05:47.568Z,11.00
2019-03-09T16:08:18.195Z,11.10
2019-03-09T16:10:48.827Z,11.00
2019-03-09T16:13:19.439Z,10.90
2019-03-09T16:15:50.338Z,10.90
2019-03-09T16:18:20.884Z,10.90
2019-03-09T16:20:51.548Z,10.80
2019-03-09T16:23:22.252Z,10.80
2019-03-09T16:25:52.781Z,10.70
2019-03-09T16:28:23.454Z,10.70
2019-03-09T16:30:53.888Z,10.60
2019-03-09T16:33:24.525Z,10.60
2019-03-09T16:35:55.202Z,10.60
2019-03-09T16:38:25.829Z,10.50
2019-03-09T16:40:56.434Z,10.50
2019-03-09T16:43:27.019Z,10.40
2019-03-09T16:45:58.722Z,10.40
2019-03-09T16:48:29.338Z,10.50
2019-03-09T16:50:59.930Z,10.40
2019-03-09T16:53:30.408Z,10.40
2019-03-09T16:56:00.947Z,10.50
2019-03-09T16:58:31.813Z,10.40
2019-03-09T17:01:02.345Z,10.40
2019-03-09T17:03:32.826Z,10.20
2019-03-09T17:06:03.413Z,9.80
2019-03-09T17:08:33.851Z,8.30
2019-03-09T17:11:04.672Z,7.70
2019-03-09T17:13:35.210Z,7.70
2019-03-09T17:16:06.755Z,7.60
2019-03-09T17:18:37.336Z,7.60
2019-03-09T17:21:07.916Z,7.50
2019-03-09T17:23:38.360Z,7.50
2019-03-09T17:26:08.861Z,7.60
2019-03-09T17:28:39.485Z,7.70
2019-03-09T17:31:10.062Z,7.70
2019-03-09T17:33:40.611Z,7.80
2019-03-09T17:36:11.078Z,8.10
2019-03-09T17:38:41.681Z,8.30
2019-03-09T17:41:12.240Z,8.50
2019-03-09T17:43:43.259Z,8.80
2019-03-09T17:46:14.603Z,9.10
2019-03-09T17:48:45.235Z,9.30
2019-03-09T17:51:15.791Z,9.40
2019-03-09T17:53:46.423Z,9.50
2019-03-09T17:56:17.027Z,9.50
2019-03-09T17:58:47.677Z,9.50
2019-03-09T18:01:18.181Z,7.70
2019-03-09T18:03:48.771Z,6.40
2019-03-09T18:06:19.340Z,5.90
2019-03-09T18:08:49.887Z,5.70
2019-03-09T18:11:20.367Z,5.70
2019-03-09T18:13:52.644Z,5.60
2019-03-09T18:16:24.063Z,5.60
2019-03-09T18:18:54.651Z,5.70
2019-03-09T18:21:25.349Z,5.70
2019-03-09T18:23:56.995Z,5.60
2019-03-09T18:26:27.653Z,5.50
2019-03-09T18:28:58.274Z,5.40
2019-03-09T18:31:28.867Z,5.40
2019-03-09T18:33:59.443Z,5.20
2019-03-09T18:36:30.137Z,5.10
2019-03-09T18:39:00.953Z,5.10
2019-03-09T18:41:33.256Z,5.10
2019-03-09T18:44:03.964Z,5.10
2019-03-09T18:46:34.785Z,5.10
2019-03-09T18:49:05.372Z,5.10
2019-03-09T18:51:36.151Z,5.10
2019-03-09T18:54:06.893Z,5.10
2019-03-09T18:56:37.575Z,5.00
2019-03-09T18:59:08.113Z,5.00
2019-03-09T19:01:38.741Z,4.90
2019-03-09T19:04:10.388Z,4.80
2019-03-09T19:06:41.075Z,4.80
2019-03-09T19:09:12.045Z,4.80
2019-03-09T19:11:43.205Z,4.80
2019-03-09T19:14:14.090Z,4.90
2019-03-09T19:16:46.585Z,4.90
2019-03-09T19:19:17.263Z,4.90
2019-03-09T19:21:47.837Z,4.90
2019-03-09T19:24:18.469Z,4.90
2019-03-09T19:26:49.071Z,4.90
2019-03-09T19:29:21.475Z,4.80
2019-03-09T19:31:52.231Z,4.90
2019-03-09T19:34:22.890Z,4.90
2019-03-09T19:36:53.325Z,4.80
2019-03-09T19:39:23.995Z,4.80
2019-03-09T19:41:54.589Z,4.80
2019-03-09T19:44:25.235Z,4.80
2019-03-09T19:46:55.735Z,4.80
2019-03-09T19:49:26.320Z,4.80
2019-03-09T19:52:00.917Z,4.80
2019-03-09T19:54:31.503Z,4.80
2019-03-09T19:57:03.194Z,4.80
2019-03-09T19:59:34.113Z,4.80
2019-03-09T20:02:04.707Z,4.80
2019-03-09T20:04:35.185Z,4.80
2019-03-09T20:07:05.749Z,4.80
2019-03-09T20:09:36.401Z,4.70
2019-03-09T20:12:06.953Z,4.70
2019-03-09T20:14:37.537Z,4.60
2019-03-09T20:17:08.131Z,4.60
2019-03-09T20:19:38.730Z,4.60
2019-03-09T20:22:09.164Z,4.60
2019-03-09T20:24:40.156Z,4.60
2019-03-09T20:27:11.264Z,4.70
2019-03-09T20:29:41.767Z,4.70
2019-03-09T20:32:12.335Z,4.80
2019-03-09T20:34:42.865Z,4.80
2019-03-09T20:37:13.445Z,4.90
2019-03-09T20:39:43.993Z,4.90
2019-03-09T20:42:14.692Z,4.90
2019-03-09T20:44:45.322Z,4.90
2019-03-09T20:47:15.969Z,5.00
2019-03-09T20:49:46.661Z,5.10
2019-03-09T20:52:17.105Z,5.20
2019-03-09T20:54:47.702Z,5.30
2019-03-09T20:57:18.315Z,5.40
2019-03-09T20:59:48.888Z,5.40
2019-03-09T21:02:21.734Z,5.50
2019-03-09T21:04:53.122Z,5.60
2019-03-09T21:07:23.728Z,5.60
2019-03-09T21:09:54.349Z,5.70
2019-03-09T21:12:24.863Z,5.80
2019-03-09T21:14:55.443Z,5.80
2019-03-09T21:17:26.047Z,5.90
2019-03-09T21:19:57.970Z,6.00
2019-03-09T21:22:28.443Z,6.00
2019-03-09T21:25:00.161Z,6.20
2019-03-09T21:27:30.932Z,6.30
2019-03-09T21:30:01.569Z,6.50
2019-03-09T21:32:32.609Z,6.70
2019-03-09T21:35:05.148Z,6.80
2019-03-09T21:37:35.779Z,6.90
2019-03-09T21:40:06.773Z,7.00
2019-03-09T21:42:37.355Z,7.10
2019-03-09T21:45:08.054Z,7.20
2019-03-09T21:47:38.621Z,7.20
2019-03-09T21:50:10.746Z,7.30
2019-03-09T21:52:41.329Z,7.30
2019-03-09T21:55:12.184Z,7.40
2019-03-09T21:57:42.691Z,7.60
2019-03-09T22:00:14.111Z,7.70
2019-03-09T22:02:44.806Z,7.80
2019-03-09T22:05:15.342Z,7.80
2019-03-09T22:07:45.872Z,7.80
2019-03-09T22:10:16.418Z,8.00
2019-03-09T22:12:47.096Z,8.00
2019-03-09T22:15:17.844Z,8.00
2019-03-09T22:17:48.351Z,8.10
2019-03-09T22:20:20.596Z,8.10
2019-03-09T22:22:51.144Z,8.20
2019-03-09T22:25:21.758Z,8.20
2019-03-09T22:27:52.345Z,8.20
2019-03-09T22:30:22.992Z,8.20
2019-03-09T22:32:53.643Z,8.20
2019-03-09T22:35:26.080Z,8.20
2019-03-09T22:37:56.637Z,8.30
2019-03-09T22:40:27.212Z,8.20
2019-03-09T22:42:57.865Z,8.20
2019-03-09T22:45:28.525Z,8.10
2019-03-09T22:47:59.046Z,8.10
2019-03-09T22:50:31.127Z,7.60
2019-03-09T22:53:01.722Z,6.10
2019-03-09T22:55:32.385Z,5.50
2019-03-09T22:58:02.985Z,5.30
2019-03-09T23:00:33.769Z,5.40
2019-03-09T23:03:06.535Z,5.40
2019-03-09T23:05:37.147Z,5.30
2019-03-09T23:08:07.862Z,5.20
2019-03-09T23:10:38.483Z,5.00
2019-03-09T23:13:09.081Z,5.00
2019-03-09T23:15:39.650Z,5.20
2019-03-09T23:18:11.816Z,5.30
2019-03-09T23:20:42.299Z,5.40
2019-03-09T23:23:12.866Z,5.50
2019-03-09T23:25:46.442Z,5.50
2019-03-09T23:28:17.497Z,5.40
2019-03-09T23:30:48.079Z,5.40
2019-03-09T23:33:18.562Z,5.40
2019-03-09T23:35:49.182Z,5.50
2019-03-09T23:38:19.691Z,5.50
2019-03-09T23:40:50.145Z,5.60
2019-03-09T23:43:20.706Z,5.70
2019-03-09T23:45:51.191Z,5.80
2019-03-09T23:48:21.646Z,5.90
2019-03-09T23:50:52.103Z,6.00
2019-03-09T23:53:22.705Z,6.20
2019-03-09T23:55:53.212Z,6.30
2019-03-09T23:58:23.766Z,6.40
